createdAt,value
2018-09-19T00:01:44.477Z,97960.63
2018-09-19T00:04:15.417Z,97965.06
2018-09-19T00:06:46.529Z,97960.63
2018-09-19T00:09:17.942Z,97962.50
2018-09-19T00:11:48.459Z,97961.17
2018-09-19T00:14:19.109Z,97957.80
2018-09-19T00:16:49.235Z,97949.86
2018-09-19T00:19:18.929Z,97953.95
2018-09-19T00:21:49.745Z,97599.22
2018-09-19T00:24:19.940Z,97966.98
2018-09-19T00:26:50.350Z,97955.92
2018-09-19T00:29:20.139Z,97964.33
2018-09-19T00:31:51.224Z,97966.13
2018-09-19T00:34:21.180Z,97963.56
2018-09-19T00:36:51.782Z,97964.42
2018-09-19T00:39:22.248Z,97965.48
2018-09-19T00:41:52.093Z,97957.50
2018-09-19T00:44:21.787Z,97961.55
2018-09-19T00:46:51.442Z,97960.05
2018-09-19T00:49:21.220Z,97958.70
2018-09-19T00:51:51.388Z,97954.11
2018-09-19T00:54:21.757Z,97956.32
2018-09-19T00:56:51.739Z,97959.74
2018-09-19T00:59:21.815Z,97961.62
2018-09-19T01:01:51.827Z,97959.58
2018-09-19T01:04:21.630Z,97955.69
2018-09-19T01:06:51.359Z,97956.37
2018-09-19T01:09:21.014Z,97956.70
2018-09-19T01:11:51.034Z,97955.85
2018-09-19T01:14:20.761Z,97963.92
2018-09-19T01:16:50.486Z,97948.59
2018-09-19T01:19:20.114Z,97955.67
2018-09-19T01:21:52.220Z,97955.02
2018-09-19T01:24:21.896Z,97949.13
2018-09-19T01:26:51.564Z,97941.68
2018-09-19T01:29:21.235Z,97946.84
2018-09-19T01:31:51.011Z,97940.16
2018-09-19T01:34:20.726Z,97938.75
2018-09-19T01:36:50.430Z,97940.52
2018-09-19T01:39:21.677Z,97943.86
2018-09-19T01:41:58.219Z,97947.79
2018-09-19T01:44:27.933Z,97948.36
2018-09-19T01:46:57.664Z,97950.11
2018-09-19T01:49:27.726Z,97947.16
2018-09-19T01:51:57.709Z,97943.58
2018-09-19T01:54:27.414Z,97947.62
2018-09-19T01:56:57.150Z,97947.32
2018-09-19T01:59:27.861Z,97949.63
2018-09-19T02:01:58.758Z,97948.46
2018-09-19T02:04:29.445Z,97950.64
2018-09-19T02:06:59.436Z,97949.78
2018-09-19T02:09:29.789Z,97942.78
2018-09-19T02:11:59.536Z,97940.80
2018-09-19T02:14:29.602Z,97943.06
2018-09-19T02:17:00.072Z,97947.34
2018-09-19T02:19:31.188Z,97944.78
2018-09-19T02:22:02.076Z,97945.47
2018-09-19T02:24:31.816Z,97948.97
2018-09-19T02:27:01.534Z,97949.83
2018-09-19T02:29:32.171Z,97954.27
2018-09-19T02:32:02.556Z,97957.45
2018-09-19T02:34:32.307Z,97953.22
2018-09-19T02:37:02.093Z,97957.34
2018-09-19T02:39:32.492Z,97954.23
2018-09-19T02:42:03.107Z,97950.66
2018-09-19T02:44:33.298Z,97949.72
2018-09-19T02:47:03.650Z,97947.73
2018-09-19T02:49:33.810Z,97940.55
2018-09-19T02:52:03.592Z,97947.91
2018-09-19T02:54:35.285Z,97957.59
2018-09-19T02:57:05.905Z,97956.70
2018-09-19T02:59:36.015Z,97949.77
2018-09-19T03:02:05.755Z,97963.65
2018-09-19T03:04:36.853Z,97969.33
2018-09-19T03:07:06.645Z,97968.31
2018-09-19T03:09:37.131Z,97968.78
2018-09-19T03:12:07.254Z,97961.62
2018-09-19T03:14:36.998Z,97956.11
2018-09-19T03:17:07.515Z,97958.80
2018-09-19T03:19:37.239Z,97953.97
2018-09-19T03:22:07.645Z,97962.38
2018-09-19T03:24:38.051Z,97955.30
2018-09-19T03:27:08.573Z,97959.27
2018-09-19T03:29:39.003Z,97958.17
2018-09-19T03:32:09.102Z,97955.18
2018-09-19T03:34:39.818Z,97960.94
2018-09-19T03:37:10.740Z,97955.80
2018-09-19T03:39:41.646Z,97961.09
2018-09-19T03:42:12.121Z,97961.60
2018-09-19T03:44:41.930Z,97967.83
2018-09-19T03:47:12.632Z,97963.55
2018-09-19T03:49:43.366Z,97967.05
2018-09-19T03:52:13.111Z,97966.97
2018-09-19T03:54:44.959Z,97966.03
2018-09-19T03:57:15.710Z,97966.77
2018-09-19T03:59:47.344Z,97967.70
2018-09-19T04:02:18.004Z,97961.30
2018-09-19T04:04:48.367Z,97966.07
2018-09-19T04:07:18.165Z,97965.72
2018-09-19T04:09:48.204Z,97970.89
2018-09-19T04:12:18.859Z,97970.55
2018-09-19T04:14:49.868Z,97973.66
2018-09-19T04:17:20.081Z,97974.98
2018-09-19T04:19:50.124Z,97975.45
2018-09-19T04:22:19.793Z,97976.45
2018-09-19T04:24:49.764Z,97978.87
2018-09-19T04:27:19.502Z,97975.25
2018-09-19T04:29:49.845Z,97969.77
2018-09-19T04:32:20.993Z,97977.62
2018-09-19T04:34:51.952Z,97975.45
2018-09-19T04:37:22.211Z,97979.48
2018-09-19T04:39:52.703Z,97981.66
2018-09-19T04:42:24.233Z,97979.02
2018-09-19T04:44:56.113Z,97986.22
2018-09-19T04:47:27.062Z,97990.84
2018-09-19T04:49:57.946Z,97993.72
2018-09-19T04:52:27.622Z,97991.23
2018-09-19T04:54:57.805Z,97991.16
2018-09-19T04:57:28.391Z,97995.39
2018-09-19T04:59:58.209Z,97995.20
2018-09-19T05:02:28.008Z,97998.47
2018-09-19T05:04:58.017Z,97997.41
2018-09-19T05:07:28.164Z,98011.88
2018-09-19T05:09:58.358Z,98007.88
2018-09-19T05:12:28.137Z,98009.70
2018-09-19T05:14:58.500Z,98011.03
2018-09-19T05:17:29.081Z,98024.37
2018-09-19T05:20:00.099Z,98021.05
2018-09-19T05:22:31.301Z,98027.47
2018-09-19T05:25:01.923Z,98023.30
2018-09-19T05:27:31.711Z,98031.73
2018-09-19T05:30:02.506Z,98035.84
2018-09-19T05:32:32.645Z,98039.56
2018-09-19T05:35:03.465Z,98036.23
2018-09-19T05:37:33.250Z,98041.67
2018-09-19T05:40:05.695Z,98042.62
2018-09-19T05:42:35.443Z,98040.39
2018-09-19T05:45:05.746Z,98040.86
2018-09-19T05:47:36.335Z,98037.03
2018-09-19T05:50:07.154Z,98041.41
2018-09-19T05:52:37.647Z,98038.98
2018-09-19T05:55:08.101Z,98045.83
2018-09-19T05:57:38.683Z,98044.02
2018-09-19T06:00:08.431Z,97579.06
2018-09-19T06:02:38.530Z,97989.44
2018-09-19T06:05:09.182Z,98052.38
2018-09-19T06:07:39.195Z,98056.59
2018-09-19T06:10:10.098Z,98055.66
2018-09-19T06:12:40.416Z,98057.52
2018-09-19T06:15:10.344Z,98057.39
2018-09-19T06:17:40.519Z,98055.91
2018-09-19T06:20:10.364Z,98060.66
2018-09-19T06:22:40.147Z,98061.59
2018-09-19T06:25:10.231Z,98062.47
2018-09-19T06:27:40.716Z,98069.02
2018-09-19T06:30:10.490Z,98064.23
2018-09-19T06:32:40.250Z,98065.09
2018-09-19T06:35:10.743Z,98069.36
2018-09-19T06:37:40.834Z,98070.56
2018-09-19T06:40:10.747Z,98063.19
2018-09-19T06:42:40.413Z,98072.43
2018-09-19T06:45:12.055Z,98077.62
2018-09-19T06:47:41.795Z,98074.11
2018-09-19T06:50:12.241Z,98073.60
2018-09-19T06:52:43.028Z,98073.47
2018-09-19T06:55:13.928Z,98078.94
2018-09-19T06:57:43.715Z,98074.48
2018-09-19T07:00:14.138Z,98081.94
2018-09-19T07:02:44.549Z,98085.72
2018-09-19T07:05:15.302Z,98086.20
2018-09-19T07:07:46.361Z,98083.44
2018-09-19T07:10:16.076Z,98085.27
2018-09-19T07:12:45.892Z,98083.03
2018-09-19T07:15:15.663Z,98079.52
2018-09-19T07:17:45.383Z,98087.98
2018-09-19T07:20:15.272Z,98088.52
2018-09-19T07:22:45.004Z,98094.13
2018-09-19T07:25:16.585Z,98096.72
2018-09-19T07:27:46.427Z,98105.09
2018-09-19T07:30:16.203Z,98104.91
2018-09-19T07:32:46.215Z,98109.64
2018-09-19T07:35:16.011Z,98102.23
2018-09-19T07:37:45.892Z,98112.41
2018-09-19T07:40:15.739Z,98107.77
2018-09-19T07:42:45.639Z,98114.14
2018-09-19T07:45:16.897Z,98110.41
2018-09-19T07:47:46.871Z,98109.78
2018-09-19T07:50:16.662Z,98112.02
2018-09-19T07:52:46.851Z,98110.93
2018-09-19T07:55:16.704Z,98110.97
2018-09-19T07:57:48.405Z,98111.67
2018-09-19T08:00:18.122Z,98114.33
2018-09-19T08:02:48.195Z,98114.34
2018-09-19T08:05:18.884Z,98109.89
2018-09-19T08:07:49.344Z,98110.40
2018-09-19T08:10:20.237Z,98111.05
2018-09-19T08:12:51.375Z,98118.82
2018-09-19T08:15:21.156Z,98116.91
2018-09-19T08:17:51.988Z,98115.61
2018-09-19T08:20:22.416Z,98113.73
2018-09-19T08:22:52.386Z,98113.47
2018-09-19T08:25:22.182Z,98109.25
2018-09-19T08:27:52.168Z,98109.16
2018-09-19T08:30:22.653Z,98115.79
2018-09-19T08:32:52.812Z,98117.67
2018-09-19T08:35:24.800Z,98121.86
2018-09-19T08:37:55.641Z,98120.17
2018-09-19T08:40:26.934Z,98112.26
2018-09-19T08:42:56.898Z,98115.49
2018-09-19T08:45:26.739Z,98119.74
2018-09-19T08:47:56.525Z,98111.28
2018-09-19T08:50:26.303Z,98115.10
2018-09-19T08:52:56.593Z,98120.39
2018-09-19T08:55:26.339Z,98114.17
2018-09-19T08:57:56.151Z,98113.08
2018-09-19T09:00:26.884Z,98111.98
2018-09-19T09:02:56.648Z,98108.80
2018-09-19T09:05:26.497Z,98104.25
2018-09-19T09:07:56.257Z,98096.97
2018-09-19T09:10:26.427Z,98101.30
2018-09-19T09:12:56.833Z,98099.45
2018-09-19T09:15:27.105Z,98093.41
2018-09-19T09:17:56.969Z,98100.02
2018-09-19T09:20:26.867Z,98090.38
2018-09-19T09:22:56.556Z,98089.03
2018-09-19T09:25:26.433Z,98087.27
2018-09-19T09:27:56.715Z,98087.25
2018-09-19T09:30:26.521Z,98083.78
2018-09-19T09:32:56.271Z,98085.58
2018-09-19T09:35:27.812Z,98088.84
2018-09-19T09:37:57.622Z,98085.44
2018-09-19T09:40:28.212Z,98083.39
2018-09-19T09:42:57.956Z,98080.58
2018-09-19T09:45:28.067Z,98082.78
2018-09-19T09:47:58.361Z,98082.52
2018-09-19T09:50:28.782Z,98077.30
2018-09-19T09:52:58.379Z,98084.64
2018-09-19T09:55:28.061Z,98087.58
2018-09-19T09:57:58.378Z,98078.16
2018-09-19T10:00:33.728Z,98076.11
2018-09-19T10:03:03.502Z,98076.33
2018-09-19T10:05:34.375Z,98077.98
2018-09-19T10:08:05.264Z,98081.37
2018-09-19T10:10:36.143Z,98076.89
2018-09-19T10:13:06.097Z,98082.34
2018-09-19T10:15:36.700Z,98082.66
2018-09-19T10:18:06.933Z,98078.02
2018-09-19T10:20:37.420Z,98070.27
2018-09-19T10:23:07.538Z,98069.73
2018-09-19T10:25:38.411Z,98068.75
2018-09-19T10:28:08.138Z,98059.33
2018-09-19T10:30:38.324Z,98060.72
2018-09-19T10:33:09.437Z,98057.14
2018-09-19T10:35:39.290Z,98056.78
2018-09-19T10:38:09.804Z,98055.84
2018-09-19T10:40:39.954Z,98047.59
2018-09-19T10:43:09.895Z,98044.27
2018-09-19T10:45:39.730Z,98050.30
2018-09-19T10:48:09.553Z,98056.77
2018-09-19T10:50:39.678Z,98050.47
2018-09-19T10:53:10.320Z,98056.98
2018-09-19T10:55:40.132Z,98051.30
2018-09-19T10:58:09.902Z,98049.25
2018-09-19T11:00:40.767Z,98056.95
2018-09-19T11:03:10.596Z,98058.98
2018-09-19T11:05:41.655Z,98054.44
2018-09-19T11:08:11.546Z,98052.47
2018-09-19T11:10:42.978Z,98050.95
2018-09-19T11:13:12.911Z,98042.50
2018-09-19T11:15:42.770Z,98046.62
2018-09-19T11:18:12.881Z,98046.51
2018-09-19T11:20:42.938Z,98046.78
2018-09-19T11:23:13.805Z,98038.70
2018-09-19T11:25:44.929Z,98043.46
2018-09-19T11:28:14.793Z,98035.84
2018-09-19T11:30:46.511Z,98036.56
2018-09-19T11:33:16.939Z,98034.70
2018-09-19T11:35:47.252Z,98031.57
2018-09-19T11:38:17.279Z,98036.45
2018-09-19T11:40:49.031Z,98039.45
2018-09-19T11:43:19.248Z,98035.22
2018-09-19T11:45:50.594Z,98036.02
2018-09-19T11:48:20.478Z,98035.05
2018-09-19T11:50:50.393Z,98036.69
2018-09-19T11:53:21.048Z,98036.75
2018-09-19T11:55:52.927Z,98033.08
2018-09-19T11:58:23.662Z,98029.05
2018-09-19T12:00:54.089Z,98031.55
2018-09-19T12:03:24.660Z,98025.59
2018-09-19T12:05:56.460Z,98016.27
2018-09-19T12:08:26.785Z,98014.80
2018-09-19T12:10:56.914Z,98018.30
2018-09-19T12:13:26.692Z,98017.80
2018-09-19T12:15:56.442Z,98017.98
2018-09-19T12:18:26.170Z,98024.95
2018-09-19T12:20:56.200Z,98018.00
2018-09-19T12:23:26.335Z,98018.58
2018-09-19T12:25:56.218Z,98017.09
2018-09-19T12:28:26.062Z,98017.88
2018-09-19T12:30:56.250Z,98010.17
2018-09-19T12:33:27.121Z,98012.00
2018-09-19T12:35:57.603Z,98009.84
2018-09-19T12:38:27.482Z,98065.80
2018-09-19T12:40:57.153Z,98015.11
2018-09-19T12:43:27.013Z,98022.09
2018-09-19T12:45:57.102Z,98016.95
2018-09-19T12:48:26.865Z,98018.45
2018-09-19T12:50:56.860Z,98011.69
2018-09-19T12:53:26.666Z,98008.11
2018-09-19T12:55:56.435Z,98008.26
2018-09-19T12:58:26.285Z,98012.18
2018-09-19T13:00:56.000Z,98010.95
2018-09-19T13:03:25.851Z,98009.36
2018-09-19T13:05:56.079Z,98011.49
2018-09-19T13:08:25.878Z,98007.59
2018-09-19T13:10:55.715Z,98012.25
2018-09-19T13:13:27.701Z,98000.80
2018-09-19T13:15:58.102Z,97995.92
2018-09-19T13:18:28.787Z,97998.75
2018-09-19T13:20:58.580Z,98003.65
2018-09-19T13:23:28.413Z,98003.52
2018-09-19T13:25:58.230Z,98003.80
2018-09-19T13:28:28.536Z,98009.89
2018-09-19T13:30:58.515Z,98008.55
2018-09-19T13:33:28.650Z,98006.00
2018-09-19T13:36:00.080Z,98001.24
2018-09-19T13:38:29.863Z,98007.33
2018-09-19T13:41:00.616Z,98006.83
2018-09-19T13:43:30.750Z,98004.92
2018-09-19T13:46:00.613Z,98009.45
2018-09-19T13:48:31.021Z,98005.29
2018-09-19T13:51:17.471Z,98003.45
2018-09-19T13:53:47.311Z,98010.40
2018-09-19T13:56:17.671Z,98014.45
2018-09-19T13:58:47.844Z,98010.50
2018-09-19T14:01:18.208Z,98009.20
2018-09-19T14:03:48.040Z,98009.30
2018-09-19T14:06:18.234Z,98007.23
2018-09-19T14:08:49.561Z,98011.15
2018-09-19T14:11:19.909Z,98014.17
2018-09-19T14:13:52.036Z,98012.60
2018-09-19T14:16:22.282Z,98010.88
2018-09-19T14:18:52.721Z,98013.30
2018-09-19T14:21:23.456Z,98009.66
2018-09-19T14:23:54.282Z,98003.94
2018-09-19T14:26:26.226Z,98004.77
2018-09-19T14:28:57.302Z,98008.20
2018-09-19T14:31:27.099Z,98004.65
2018-09-19T14:33:57.276Z,98011.36
2018-09-19T14:36:27.576Z,98011.48
2018-09-19T14:38:57.660Z,98020.97
2018-09-19T14:41:27.440Z,98022.78
2018-09-19T14:43:57.528Z,98023.77
2018-09-19T14:46:28.598Z,98023.05
2018-09-19T14:48:59.050Z,98018.16
2018-09-19T14:51:29.252Z,98011.00
2018-09-19T14:54:00.742Z,98010.89
2018-09-19T14:56:31.430Z,98012.95
2018-09-19T14:59:01.850Z,98008.06
2018-09-19T15:01:32.290Z,98008.19
2018-09-19T15:04:02.068Z,98012.69
2018-09-19T15:06:33.154Z,98011.09
2018-09-19T15:09:03.953Z,98005.25
2018-09-19T15:11:35.159Z,98006.58
2018-09-19T15:14:05.639Z,98003.41
2018-09-19T15:16:35.801Z,98000.28
2018-09-19T15:19:05.922Z,97936.48
2018-09-19T15:21:37.173Z,97997.70
2018-09-19T15:24:08.924Z,98005.73
2018-09-19T15:26:38.664Z,98005.86
2018-09-19T15:29:10.665Z,98006.22
2018-09-19T15:31:41.449Z,98009.39
2018-09-19T15:34:12.392Z,98008.31
2018-09-19T15:36:43.554Z,98011.72
2018-09-19T15:39:13.722Z,98011.23
2018-09-19T15:41:44.079Z,98009.17
2018-09-19T15:44:15.024Z,98011.45
2018-09-19T15:46:45.787Z,98012.88
2018-09-19T15:49:15.931Z,98018.61
2018-09-19T15:51:46.463Z,98015.64
2018-09-19T15:54:17.542Z,98027.31
2018-09-19T15:56:47.424Z,98024.75
2018-09-19T15:59:17.800Z,98032.78
2018-09-19T16:01:47.767Z,98035.31
2018-09-19T16:04:17.841Z,98044.08
2018-09-19T16:06:48.625Z,98052.96
2018-09-19T16:09:19.125Z,98047.37
2018-09-19T16:11:48.976Z,98053.30
2018-09-19T16:14:20.132Z,98050.87
2018-09-19T16:16:49.983Z,98051.96
2018-09-19T16:19:21.217Z,98056.80
2018-09-19T16:21:52.066Z,98055.55
2018-09-19T16:24:23.143Z,98059.91
2018-09-19T16:26:54.294Z,98062.48
2018-09-19T16:29:25.026Z,98060.34
2018-09-19T16:31:54.761Z,98058.32
2018-09-19T16:34:25.665Z,98054.75
2018-09-19T16:36:56.863Z,98053.17
2018-09-19T16:39:27.274Z,98059.81
2018-09-19T16:41:58.522Z,98065.60
2018-09-19T16:44:28.362Z,98068.28
2018-09-19T16:46:58.681Z,98071.88
2018-09-19T16:49:29.406Z,98078.58
2018-09-19T16:52:01.377Z,98078.30
2018-09-19T16:54:31.495Z,98080.37
2018-09-19T16:57:02.081Z,98074.24
2018-09-19T16:59:32.430Z,98076.86
2018-09-19T17:02:02.739Z,98077.17
2018-09-19T17:04:33.878Z,98078.33
2018-09-19T17:07:04.489Z,98084.69
2018-09-19T17:09:35.482Z,98082.55
2018-09-19T17:12:06.638Z,98092.42
2018-09-19T17:14:36.563Z,98090.70
2018-09-19T17:17:08.545Z,98095.14
2018-09-19T17:19:38.971Z,98086.91
2018-09-19T17:22:10.286Z,98086.05
2018-09-19T17:24:40.658Z,97585.19
2018-09-19T17:27:11.564Z,98088.63
2018-09-19T17:29:41.768Z,98094.92
2018-09-19T17:32:12.021Z,98097.73
2018-09-19T17:34:41.917Z,98102.97
2018-09-19T17:37:11.780Z,98108.13
2018-09-19T17:39:42.262Z,98110.52
2018-09-19T17:42:12.339Z,98113.48
2018-09-19T17:44:42.176Z,98112.98
2018-09-19T17:47:12.633Z,98116.88
2018-09-19T17:49:43.444Z,98126.39
2018-09-19T17:52:14.202Z,98124.27
2018-09-19T17:54:44.357Z,98130.38
2018-09-19T17:57:14.323Z,98133.41
2018-09-19T17:59:45.343Z,98138.37
2018-09-19T18:02:17.123Z,98142.73
2018-09-19T18:04:48.203Z,98142.80
2018-09-19T18:07:18.276Z,98136.72
2018-09-19T18:09:48.120Z,98137.40
2018-09-19T18:12:17.861Z,98140.33
2018-09-19T18:14:48.635Z,98137.89
2018-09-19T18:17:20.437Z,98138.16
2018-09-19T18:19:51.508Z,98142.07
2018-09-19T18:22:22.142Z,98143.84
2018-09-19T18:24:51.946Z,98144.99
2018-09-19T18:27:22.772Z,98151.17
2018-09-19T18:29:52.701Z,98154.80
2018-09-19T18:32:23.372Z,98151.92
2018-09-19T18:34:53.202Z,98151.08
2018-09-19T18:37:26.296Z,98151.92
2018-09-19T18:39:58.814Z,98158.20
2018-09-19T18:42:29.504Z,98158.58
2018-09-19T18:45:00.446Z,98157.35
2018-09-19T18:47:31.353Z,98160.02
2018-09-19T18:50:02.314Z,98159.31
2018-09-19T18:52:33.382Z,98165.22
2018-09-19T18:55:03.348Z,98155.30
2018-09-19T18:57:33.374Z,98168.52
2018-09-19T19:00:03.388Z,97682.65
2018-09-19T19:02:33.654Z,98164.72
2018-09-19T19:05:04.006Z,98166.62
2018-09-19T19:07:34.585Z,98154.90
2018-09-19T19:10:07.024Z,98162.50
2018-09-19T19:12:37.570Z,98166.11
2018-09-19T19:15:10.448Z,98160.00
2018-09-19T19:17:42.249Z,98158.67
2018-09-19T19:20:13.126Z,98157.91
2018-09-19T19:22:44.065Z,98155.41
2018-09-19T19:25:14.244Z,98154.66
2018-09-19T19:27:44.475Z,98157.88
2018-09-19T19:30:15.697Z,98158.90
2018-09-19T19:32:46.008Z,98154.37
2018-09-19T19:35:18.316Z,98154.63
2018-09-19T19:37:48.678Z,98150.60
2018-09-19T19:40:18.858Z,98152.41
2018-09-19T19:42:49.360Z,98152.50
2018-09-19T19:45:20.370Z,98156.08
2018-09-19T19:47:50.243Z,98150.85
2018-09-19T19:50:22.668Z,98153.70
2018-09-19T19:52:53.666Z,98150.34
2018-09-19T19:55:24.523Z,98150.59
2018-09-19T19:57:55.442Z,98147.27
2018-09-19T20:00:25.678Z,98144.38
2018-09-19T20:02:57.237Z,98145.63
2018-09-19T20:05:28.016Z,98144.17
2018-09-19T20:07:58.780Z,98143.88
2018-09-19T20:10:28.636Z,98143.66
2018-09-19T20:12:59.522Z,98142.09
2018-09-19T20:15:29.326Z,98140.86
2018-09-19T20:18:00.116Z,98142.28
2018-09-19T20:20:30.590Z,98137.77
2018-09-19T20:23:01.686Z,98146.75
2018-09-19T20:25:32.972Z,98152.72
2018-09-19T20:28:03.257Z,98147.73
2018-09-19T20:30:33.989Z,98147.83
2018-09-19T20:33:05.731Z,98150.55
2018-09-19T20:35:37.589Z,98082.13
2018-09-19T20:38:08.471Z,98148.69
2018-09-19T20:40:39.178Z,98150.11
2018-09-19T20:43:10.367Z,98152.95
2018-09-19T20:45:40.812Z,98149.02
2018-09-19T20:48:11.709Z,98149.91
2018-09-19T20:50:41.597Z,98147.63
2018-09-19T20:53:12.000Z,98150.81
2018-09-19T20:55:43.345Z,98147.86
2018-09-19T20:58:14.198Z,98150.05
2018-09-19T21:00:45.506Z,98147.30
2018-09-19T21:03:16.145Z,98153.17
2018-09-19T21:05:48.314Z,98150.81
2018-09-19T21:08:19.167Z,98156.87
2018-09-19T21:10:49.935Z,98155.86
2018-09-19T21:13:19.798Z,98156.86
2018-09-19T21:15:51.780Z,98159.14
2018-09-19T21:18:22.631Z,98160.64
2018-09-19T21:20:52.461Z,98165.53
2018-09-19T21:23:23.237Z,98164.30
2018-09-19T21:25:54.129Z,98165.71
2018-09-19T21:28:23.959Z,98169.70
2018-09-19T21:30:55.805Z,98168.98
2018-09-19T21:33:25.793Z,98178.26
2018-09-19T21:35:56.355Z,98173.19
2018-09-19T21:38:26.751Z,98169.50
2018-09-19T21:40:57.080Z,98178.57
2018-09-19T21:43:26.804Z,98178.02
2018-09-19T21:45:57.171Z,98179.31
2018-09-19T21:48:28.618Z,98173.45
2018-09-19T21:50:59.538Z,98171.96
2018-09-19T21:53:30.539Z,98165.97
2018-09-19T21:56:00.208Z,98169.22
2018-09-19T21:58:31.815Z,98173.50
2018-09-19T22:01:06.754Z,98166.27
2018-09-19T22:03:37.148Z,98172.21
2018-09-19T22:06:07.491Z,98170.88
2018-09-19T22:08:39.156Z,98172.13
2018-09-19T22:11:10.086Z,98172.59
2018-09-19T22:13:40.010Z,98174.86
2018-09-19T22:16:09.728Z,98170.88
2018-09-19T22:18:39.478Z,98182.81
2018-09-19T22:21:09.434Z,98178.58
2018-09-19T22:23:39.555Z,98178.97
2018-09-19T22:26:10.057Z,98174.86
2018-09-19T22:28:40.899Z,98182.27
2018-09-19T22:31:11.114Z,98176.96
2018-09-19T22:33:40.826Z,98172.43
2018-09-19T22:36:11.551Z,98172.22
2018-09-19T22:38:42.018Z,98171.27
2018-09-19T22:41:12.356Z,98168.62
2018-09-19T22:43:42.970Z,98162.23
2018-09-19T22:46:12.759Z,98164.39
2018-09-19T22:48:43.853Z,98154.92
2018-09-19T22:51:14.450Z,98156.55
2018-09-19T22:53:45.275Z,98158.65
2018-09-19T22:56:17.074Z,97643.45
2018-09-19T22:58:46.978Z,98168.34
2018-09-19T23:01:16.796Z,98163.98
2018-09-19T23:03:46.562Z,98160.02
2018-09-19T23:06:16.371Z,98166.25
2018-09-19T23:08:46.802Z,98170.34
2018-09-19T23:11:17.802Z,98165.92
2018-09-19T23:13:48.150Z,98165.73
2018-09-19T23:16:17.950Z,98163.55
2018-09-19T23:18:48.006Z,98163.81
2018-09-19T23:21:18.250Z,98160.83
2018-09-19T23:23:48.690Z,98166.47
2018-09-19T23:26:18.632Z,98168.91
2018-09-19T23:28:49.295Z,98171.32
2018-09-19T23:31:20.218Z,98168.20
2018-09-19T23:33:50.974Z,98169.23
2018-09-19T23:36:21.772Z,98169.63
2018-09-19T23:38:52.359Z,98168.64
2018-09-19T23:41:23.430Z,98163.89
2018-09-19T23:43:53.396Z,98175.01
2018-09-19T23:46:24.385Z,98171.14
2018-09-19T23:48:54.355Z,98171.55
2018-09-19T23:51:24.080Z,98167.52
2018-09-19T23:53:54.720Z,98166.11
2018-09-19T23:56:24.552Z,98163.00
2018-09-19T23:58:55.431Z,98163.23
